Mijn Webcam Meer informatie Mijn Webcam


webcam richting noord-oost Meer informatie webcam facing north-east


Regen radar Meer informatie rain snow radar


Bezoek onze andere website:

Template documentation
and downloads

And another site



METAR rapporten vliegvelden

   
EHGG - Groningen/Eelde
Gewijzigd: 26-03-2019 03:55
Grotendeels bewolkt  
Grotendeels bewolkt  
   Wind: Westen 11.1 km/h
Wind: Westen 11.1 km/h
Temperatuur: 4°C
Voelt als: 1°C
Dauwpunt: 2°C
Vochtigheid: 87%
Barometer: 1029 hPa
Bewolking: Grotendeels bewolkt
Zicht: meer dan 10 km
Bewolking: Grotendeels bewolkt 1036.3 m,
Grotendeels bewolkt 1158.2 m
EHGG 260255Z AUTO 26006KT 9999 BKN034 BKN038 04/02 Q1029
EHMA - Schiermonnikoog
Gewijzigd: 26-03-2019 01:25
Verouderd
Grotendeels bewolkt  
Grotendeels bewolkt  
   Wind: NW 38.9 km/h
Wind: NW 38.9 km/h
Temperatuur: 7°C
Voelt als: 2°C
Dauwpunt: 3°C
Vochtigheid: 76%
Barometer: 1029 hPa
Bewolking: Grotendeels bewolkt
Zicht: meer dan 10 km
Bewolking: Licht bewolkt 487.7 m,
Gedeeltelijk bewolkt 670.6 m,
Grotendeels bewolkt 792.5 m
EHMA 260025Z AUTO 32021KT 9999 FEW016 SCT022 BKN026 07/03 Q1029 W///H///
EHMG - Terschelling
Gewijzigd: 26-03-2019 03:55
Helder  
Helder  
   Wind: WNW 27.8 km/h
Wind: WNW 27.8 km/h
Temperatuur: 7°C
Voelt als: 3°C
Dauwpunt: 4°C
Vochtigheid: 81%
Barometer: 1030 hPa
Bewolking: Helder
Zicht: meer dan 10 km
Bewolking: Helder
EHMG 260255Z AUTO 30015KT 9999 NCD 07/04 Q1030 W///H///
EHVL - Vlieland
Gewijzigd: 26-03-2019 03:55
Bewolking  
Bewolking  
   Wind: NW 31.5 km/h
Wind: NW 31.5 km/h
Temperatuur: 7°C
Voelt als: 3°C
Dauwpunt: 4°C
Vochtigheid: 81%
Barometer: 1030 hPa
Bewolking: Bewolking
Zicht: meer dan 10 km
Bewolking: Bewolking 3657.6 m
EHVL 260255Z AUTO 31017KT 9999 OVC120 07/04 Q1030 BLU
ETWM - Meppen, Germany
Gewijzigd: 26-03-2019 03:20
  
  
   Wind: WNW 5.6 km/h
Wind: WNW 5.6 km/h
Temperatuur: 5°C
Voelt als: 4°C
Dauwpunt: 0°C
Vochtigheid: 70%
Barometer: 1029 hPa
Zicht: meer dan 10 km
ETWM 260220Z AUTO 29003KT 9999 // ////// 05/00 Q1029 ///
 

Script ontwikkeld door  Saratoga-weather.org Aangepast voor de template door  Weerstation Leuven

U vindt ons ook hier:

Het Weer Aktueel

UK Metoffice

European Weather Network

WeatherCloud

Weather Underground

Benelux Weer Netwerk

AWEKAS

WeatherlinkIP

HAMweather, WeatherForYou, PWS Weather

 

Apparatuur in gebruik:

Weerstation
Davis VP2 Plus

Weerprogramma
Cumulus

Weercomputer
ASUS Eee Box B202

Webleverancier
Antagonist

Davis VP2 Plus

Cumulus

ASUS Eee Box B202

Antagonist